Ralls, Texas
Current Conditions -  °F | °C
As of 9:53 PM on Tuesday 21 Oct 2014 (Local Time) from KLBB Reporting Station
Overcast Overcast  
Wind Chill: 19°   Ceiling: 7000
Heat Index: 19°   Visibility: 10mi
Dew Point: 11°   Wind: 7mph
Humidity: 60%   Direction: 160°SSE
Pressure: 30.08"   Gusts: NA
Location:  33.67°N, 101.39°W
Report Text: KLBB 220253Z 16006KT 10SM OVC070 19/11 A3008 RMK AO2 SLP151 BINOVC T01890111 51008
Loading
Personal Weather Stations






























Interactive Weather Map
Tropical Storm Tracking
New forecast layout! Learn more

10-Day Weather Forecast

Advertisements
Track Severe Weather on mobile